createdAt,value
2023-03-28T00:01:10.775Z,102627.28
2023-03-28T00:03:40.672Z,102623.47
2023-03-28T00:06:11.961Z,102625.00
2023-03-28T00:08:41.149Z,102634.06
2023-03-28T00:11:20.460Z,102633.53
2023-03-28T00:13:51.374Z,102627.63
2023-03-28T00:16:19.635Z,102629.16
2023-03-28T00:18:50.860Z,102635.00
2023-03-28T00:21:23.932Z,102626.13
2023-03-28T00:23:54.110Z,102627.41
2023-03-28T00:26:26.643Z,102627.91
2023-03-28T00:28:55.121Z,102630.00
2023-03-28T00:31:24.404Z,102627.56
2023-03-28T00:33:52.996Z,102621.44
2023-03-28T00:36:23.424Z,102625.97
2023-03-28T00:38:52.253Z,102622.75
2023-03-28T00:41:21.937Z,102617.63
2023-03-28T00:43:54.857Z,102622.41
2023-03-28T00:46:27.383Z,102621.03
2023-03-28T00:49:00.485Z,102625.78
2023-03-28T00:51:33.092Z,102620.16
2023-03-28T00:54:04.825Z,102628.97
2023-03-28T00:56:36.966Z,102629.22
2023-03-28T00:59:13.467Z,102623.28
2023-03-28T01:01:41.754Z,102618.19
2023-03-28T01:04:10.421Z,102624.34
2023-03-28T01:06:42.947Z,102621.09
2023-03-28T01:09:11.375Z,102633.66
2023-03-28T01:11:42.411Z,102628.56
2023-03-28T01:14:14.112Z,102633.91
2023-03-28T01:16:46.004Z,102634.91
2023-03-28T01:19:36.176Z,102631.69
2023-03-28T01:23:03.726Z,102634.66
2023-03-28T01:26:11.319Z,102628.97
2023-03-28T01:29:30.613Z,102620.66
2023-03-28T01:32:40.762Z,102614.97
2023-03-28T01:35:46.414Z,102614.66
2023-03-28T01:38:22.281Z,102617.53
2023-03-28T01:41:00.142Z,102616.75
2023-03-28T01:43:37.983Z,102615.94
2023-03-28T01:46:16.129Z,102625.81
2023-03-28T01:48:56.788Z,102619.09
2023-03-28T01:51:38.308Z,102616.44
2023-03-28T01:54:18.758Z,102622.31
2023-03-28T01:56:53.329Z,102615.94
2023-03-28T01:59:26.057Z,102609.22
2023-03-28T02:02:00.925Z,102611.09
2023-03-28T02:04:31.375Z,102608.44
2023-03-28T02:07:00.528Z,102613.75
2023-03-28T02:09:32.546Z,102610.50
2023-03-28T02:12:06.802Z,102608.63
2023-03-28T02:14:39.646Z,102600.63
2023-03-28T02:17:15.555Z,102604.16
2023-03-28T02:19:50.242Z,102603.09
2023-03-28T02:22:24.415Z,102603.66
2023-03-28T02:24:54.227Z,102606.31
2023-03-28T02:27:23.787Z,102604.16
2023-03-28T02:29:54.601Z,102600.41
2023-03-28T02:32:23.924Z,102601.22
2023-03-28T02:34:55.614Z,102603.66
2023-03-28T02:37:41.327Z,102599.94
2023-03-28T02:40:27.998Z,102584.41
2023-03-28T02:43:56.561Z,102598.31
2023-03-28T02:46:31.223Z,102603.31
2023-03-28T02:49:50.801Z,102601.69
2023-03-28T02:52:34.855Z,102600.31
2023-03-28T02:55:16.985Z,102608.34
2023-03-28T02:57:52.086Z,102591.19
2023-03-28T03:00:21.773Z,102599.53
2023-03-28T03:02:52.416Z,102597.66
2023-03-28T03:05:22.038Z,102600.06
2023-03-28T03:07:52.132Z,102604.59
2023-03-28T03:10:22.094Z,102601.94
2023-03-28T03:12:50.598Z,102605.41
2023-03-28T03:15:19.170Z,102601.94
2023-03-28T03:17:48.149Z,102608.34
2023-03-28T03:20:16.387Z,102602.44
2023-03-28T03:22:44.567Z,102601.84
2023-03-28T03:25:14.715Z,102607.19
2023-03-28T03:27:44.382Z,102597.31
2023-03-28T03:30:13.960Z,102593.84
2023-03-28T03:32:44.231Z,102596.50
2023-03-28T03:35:13.088Z,102597.56
2023-03-28T03:37:41.521Z,102592.47
2023-03-28T03:40:11.018Z,102604.19
2023-03-28T03:42:39.334Z,102607.91
2023-03-28T03:45:11.201Z,102602.00
2023-03-28T03:47:39.372Z,102599.31
2023-03-28T03:50:09.484Z,102604.41
2023-03-28T03:52:38.099Z,102594.81
2023-03-28T03:55:07.592Z,102600.13
2023-03-28T03:57:35.881Z,102598.28
2023-03-28T04:00:12.139Z,102599.09
2023-03-28T04:02:42.045Z,102604.41
2023-03-28T04:05:10.986Z,102605.47
2023-03-28T04:07:39.392Z,102596.09
2023-03-28T04:10:09.269Z,102597.97
2023-03-28T04:12:37.462Z,102609.91
2023-03-28T04:15:07.299Z,102612.34
2023-03-28T04:17:35.987Z,102619.75
2023-03-28T04:20:15.517Z,102610.16
2023-03-28T04:22:45.405Z,102604.25
2023-03-28T04:25:14.840Z,102613.88
2023-03-28T04:27:47.232Z,102614.91
2023-03-28T04:30:18.036Z,102616.53
2023-03-28T04:32:49.407Z,102614.13
2023-03-28T04:35:19.419Z,102612.72
2023-03-28T04:37:49.257Z,102613.53
2023-03-28T04:40:17.858Z,102610.03
2023-03-28T04:42:46.822Z,102606.56
2023-03-28T04:45:17.657Z,102596.72
2023-03-28T04:47:46.396Z,102610.03
2023-03-28T04:50:14.751Z,102610.03
2023-03-28T04:52:44.330Z,102596.16
2023-03-28T04:55:12.590Z,102607.06
2023-03-28T04:57:40.913Z,102613.22
2023-03-28T05:00:12.969Z,102610.53
2023-03-28T05:02:41.272Z,102617.72
2023-03-28T05:05:10.493Z,102616.13
2023-03-28T05:07:38.702Z,102611.84
2023-03-28T05:10:11.270Z,102612.88
2023-03-28T05:12:42.361Z,102607.81
2023-03-28T05:15:11.537Z,102617.66
2023-03-28T05:17:51.071Z,102615.78
2023-03-28T05:20:19.762Z,102617.66
2023-03-28T05:22:48.341Z,102622.19
2023-03-28T05:25:18.291Z,102611.53
2023-03-28T05:27:46.931Z,102620.31
2023-03-28T05:30:15.987Z,102619.97
2023-03-28T05:32:44.981Z,102627.97
2023-03-28T05:35:16.136Z,102633.31
2023-03-28T05:37:46.757Z,102634.34
2023-03-28T05:40:17.585Z,102635.41
2023-03-28T05:42:46.122Z,102634.34
2023-03-28T05:45:14.703Z,102639.47
2023-03-28T05:47:43.077Z,102649.91
2023-03-28T05:50:12.445Z,102646.19
2023-03-28T05:52:40.716Z,102647.53
2023-03-28T05:55:09.935Z,102647.88
2023-03-28T05:57:39.536Z,102655.97
2023-03-28T06:00:11.806Z,102657.09
2023-03-28T06:02:40.377Z,102647.56
2023-03-28T06:05:10.157Z,102653.56
2023-03-28T06:07:42.567Z,102650.50
2023-03-28T06:10:13.658Z,102645.38
2023-03-28T06:12:43.314Z,102641.03
2023-03-28T06:15:12.669Z,102645.78
2023-03-28T06:17:40.933Z,102650.31
2023-03-28T06:20:10.853Z,102650.53
2023-03-28T06:22:39.633Z,102640.88
2023-03-28T06:25:08.981Z,102645.38
2023-03-28T06:27:37.251Z,102648.00
2023-03-28T06:30:09.039Z,102647.63
2023-03-28T06:32:37.331Z,102643.50
2023-03-28T06:35:06.605Z,102651.94
2023-03-28T06:37:34.854Z,102651.78
2023-03-28T06:40:03.593Z,102651.91
2023-03-28T06:42:31.973Z,102656.84
2023-03-28T06:45:00.276Z,102650.00
2023-03-28T06:47:29.965Z,102651.72
2023-03-28T06:49:58.181Z,102654.50
2023-03-28T06:52:26.437Z,102648.72
2023-03-28T06:54:54.592Z,102656.56
2023-03-28T06:57:22.839Z,102656.88
2023-03-28T06:59:51.593Z,102652.66
2023-03-28T07:02:19.890Z,102649.22
2023-03-28T07:04:49.453Z,102660.53
2023-03-28T07:07:17.693Z,102654.41
2023-03-28T07:09:46.076Z,102654.19
2023-03-28T07:12:14.323Z,102660.09
2023-03-28T07:14:44.617Z,102664.69
2023-03-28T07:17:12.884Z,102670.81
2023-03-28T07:19:41.313Z,102669.47
2023-03-28T07:22:10.847Z,102667.59
2023-03-28T07:24:39.053Z,102670.81
2023-03-28T07:27:15.753Z,102671.38
2023-03-28T07:29:45.024Z,102681.06
2023-03-28T07:32:13.526Z,102684.25
2023-03-28T07:34:42.117Z,102689.34
2023-03-28T07:37:11.887Z,102689.38
2023-03-28T07:39:41.927Z,102696.63
2023-03-28T07:42:11.786Z,102699.06
2023-03-28T07:44:42.240Z,102700.16
2023-03-28T07:47:12.129Z,102696.94
2023-03-28T07:49:41.136Z,102699.09
2023-03-28T07:52:11.631Z,102703.38
2023-03-28T07:54:40.012Z,102708.25
2023-03-28T07:57:08.654Z,102706.06
2023-03-28T07:59:36.879Z,102707.13
2023-03-28T08:02:05.116Z,102713.81
2023-03-28T08:04:33.606Z,102716.22
2023-03-28T08:07:02.308Z,102709.72
2023-03-28T08:09:31.893Z,102711.34
2023-03-28T08:12:00.252Z,102713.16
2023-03-28T08:14:28.520Z,102709.34
2023-03-28T08:16:56.734Z,102713.94
2023-03-28T08:19:24.941Z,102707.69
2023-03-28T08:21:53.239Z,102705.22
2023-03-28T08:24:32.741Z,102700.28
2023-03-28T08:27:03.235Z,102702.88
2023-03-28T08:29:31.704Z,102698.56
2023-03-28T08:31:59.913Z,102703.16
2023-03-28T08:34:28.256Z,102699.06
2023-03-28T08:36:57.711Z,102696.31
2023-03-28T08:39:26.177Z,102702.66
2023-03-28T08:42:33.452Z,102708.19
2023-03-28T08:45:19.724Z,102714.34
2023-03-28T08:48:03.282Z,102702.78
2023-03-28T08:50:35.493Z,102698.34
2023-03-28T08:53:05.160Z,102690.41
2023-03-28T08:55:38.653Z,102697.31
2023-03-28T08:58:14.832Z,102698.84
2023-03-28T09:00:43.188Z,102694.69
2023-03-28T09:03:15.665Z,102689.72
2023-03-28T09:05:49.915Z,102684.00
2023-03-28T09:08:49.562Z,102676.06
2023-03-28T09:11:31.108Z,102680.88
2023-03-28T09:14:21.472Z,102673.81
2023-03-28T09:17:03.042Z,102672.69
2023-03-28T09:19:50.682Z,102670.41
2023-03-28T09:22:31.660Z,102670.91
2023-03-28T09:25:24.406Z,102663.47
2023-03-28T09:28:02.536Z,102664.16
2023-03-28T09:30:35.872Z,102661.81
2023-03-28T09:33:12.274Z,102654.03
2023-03-28T09:35:42.098Z,102658.34
2023-03-28T09:38:23.221Z,102658.41
2023-03-28T09:40:56.072Z,102654.69
2023-03-28T09:43:32.604Z,102654.19
2023-03-28T09:46:06.369Z,102652.31
2023-03-28T09:48:36.845Z,102640.59
2023-03-28T09:51:08.200Z,102639.84
2023-03-28T09:53:38.674Z,102637.25
2023-03-28T09:56:14.526Z,102634.53
2023-03-28T09:58:51.799Z,102628.13
2023-03-28T10:01:38.807Z,102629.75
2023-03-28T10:04:13.904Z,102623.97
2023-03-28T10:06:43.280Z,102638.19
2023-03-28T10:09:19.283Z,102625.34
2023-03-28T10:11:54.616Z,102619.06
2023-03-28T10:14:35.743Z,102609.75
2023-03-28T10:17:08.142Z,102611.88
2023-03-28T10:19:39.919Z,102610.69
2023-03-28T10:22:13.278Z,102609.38
2023-03-28T10:24:42.625Z,102605.16
2023-03-28T10:27:21.186Z,102604.34
2023-03-28T10:29:49.487Z,102607.06
2023-03-28T10:32:28.263Z,102599.09
2023-03-28T10:35:04.911Z,102601.16
2023-03-28T10:37:35.535Z,102593.53
2023-03-28T10:40:10.828Z,102586.53
2023-03-28T10:42:44.127Z,102583.94
2023-03-28T10:45:23.860Z,102584.53
2023-03-28T10:47:58.335Z,102574.56
2023-03-28T10:50:34.677Z,102566.84
2023-03-28T10:53:27.053Z,102570.63
2023-03-28T10:56:13.782Z,102563.13
2023-03-28T10:58:51.000Z,102562.63
2023-03-28T11:01:22.146Z,102555.91
2023-03-28T11:04:14.541Z,102558.91
2023-03-28T11:06:51.310Z,102548.72
2023-03-28T11:09:29.747Z,102543.69
2023-03-28T11:12:14.861Z,102552.31
2023-03-28T11:15:03.214Z,102536.91
2023-03-28T11:17:43.582Z,102531.72
2023-03-28T11:20:42.639Z,102522.28
2023-03-28T11:23:34.495Z,102517.09
2023-03-28T11:26:09.650Z,102520.84
2023-03-28T11:28:59.804Z,102511.22
2023-03-28T11:31:35.046Z,102512.81
2023-03-28T11:34:07.896Z,102494.13
2023-03-28T11:36:45.125Z,102503.16
2023-03-28T11:39:20.208Z,102502.34
2023-03-28T11:41:51.383Z,102503.13
2023-03-28T11:44:24.910Z,102493.19
2023-03-28T11:47:00.608Z,102483.06
2023-03-28T11:49:35.105Z,102477.53
2023-03-28T11:52:11.231Z,102478.97
2023-03-28T11:54:44.622Z,102461.09
2023-03-28T11:57:20.606Z,102460.19
2023-03-28T11:59:55.414Z,102460.81
2023-03-28T12:02:42.510Z,102450.44
2023-03-28T12:05:22.747Z,102456.94
2023-03-28T12:08:04.313Z,102452.97
2023-03-28T12:10:36.399Z,102437.63
2023-03-28T12:13:12.490Z,102439.72
2023-03-28T12:15:48.808Z,102428.06
2023-03-28T12:18:26.233Z,102411.69
2023-03-28T12:21:01.073Z,102414.03
2023-03-28T12:23:39.345Z,102410.81
2023-03-28T12:26:21.277Z,102389.63
2023-03-28T12:28:54.397Z,102399.69
2023-03-28T12:31:27.721Z,102390.78
2023-03-28T12:34:06.683Z,102383.72
2023-03-28T12:36:42.819Z,102363.59
2023-03-28T12:39:34.477Z,102366.28
2023-03-28T12:42:05.040Z,102360.53
2023-03-28T12:44:42.856Z,102375.03
2023-03-28T12:47:17.250Z,102365.16
2023-03-28T12:49:50.282Z,102362.94
2023-03-28T12:52:23.508Z,102355.66
2023-03-28T12:55:01.301Z,102359.84
2023-03-28T12:57:48.393Z,102347.41
2023-03-28T13:00:27.375Z,102341.53
2023-03-28T13:03:11.989Z,102338.03
2023-03-28T13:05:48.800Z,102338.16
2023-03-28T13:08:24.406Z,102334.84
2023-03-28T13:11:07.807Z,102326.88
2023-03-28T13:13:47.219Z,102333.53
2023-03-28T13:16:17.410Z,102322.38
2023-03-28T13:18:50.557Z,102334.22
2023-03-28T13:21:44.782Z,102342.00
2023-03-28T13:24:32.023Z,102328.13
2023-03-28T13:27:05.562Z,102322.56
2023-03-28T13:29:48.682Z,102320.81
2023-03-28T13:32:19.095Z,102315.38
2023-03-28T13:34:49.929Z,102315.53
2023-03-28T13:37:23.903Z,102316.63
2023-03-28T13:39:54.358Z,102305.63
2023-03-28T13:42:32.724Z,102301.41
2023-03-28T13:45:06.295Z,102300.59
2023-03-28T13:47:39.319Z,102297.19
2023-03-28T13:50:22.234Z,102293.31
2023-03-28T13:52:50.534Z,102295.03
2023-03-28T13:55:23.554Z,102280.97
2023-03-28T13:57:54.052Z,102271.59
2023-03-28T14:00:26.611Z,102265.34
2023-03-28T14:03:03.442Z,102261.47
2023-03-28T14:05:35.406Z,102254.19
2023-03-28T14:08:21.494Z,102250.63
2023-03-28T14:10:50.997Z,102246.59
2023-03-28T14:13:25.129Z,102240.03
2023-03-28T14:15:55.420Z,102244.19
2023-03-28T14:18:30.323Z,102227.78
2023-03-28T14:21:00.111Z,102246.50
2023-03-28T14:23:31.431Z,102232.66
2023-03-28T14:26:02.807Z,102228.44
2023-03-28T14:28:33.099Z,102212.50
2023-03-28T14:31:02.061Z,102209.09
2023-03-28T14:33:37.460Z,102201.91
2023-03-28T14:36:07.083Z,102195.06
2023-03-28T14:38:37.979Z,102188.00
2023-03-28T14:41:10.149Z,102185.53
2023-03-28T14:43:39.918Z,102186.25
2023-03-28T14:46:10.278Z,102179.91
2023-03-28T14:48:40.013Z,102177.88
2023-03-28T14:51:11.788Z,102183.44
2023-03-28T14:53:47.408Z,102172.78
2023-03-28T14:56:19.857Z,102172.50
2023-03-28T14:58:51.270Z,102164.69
2023-03-28T15:01:23.186Z,102148.28
2023-03-28T15:03:59.273Z,102148.75
2023-03-28T15:06:29.336Z,102147.63
2023-03-28T15:09:00.698Z,102136.94
2023-03-28T15:11:33.694Z,102128.50
2023-03-28T15:14:07.040Z,102119.22
2023-03-28T15:16:40.796Z,102118.44
2023-03-28T15:19:18.469Z,102094.34
2023-03-28T15:21:55.769Z,102094.34
2023-03-28T15:24:26.866Z,102095.47
2023-03-28T15:26:57.409Z,102090.38
2023-03-28T15:29:27.812Z,102089.28
2023-03-28T15:32:02.741Z,102087.56
2023-03-28T15:34:31.041Z,102076.09
2023-03-28T15:37:02.355Z,102068.16
2023-03-28T15:39:33.321Z,102067.34
2023-03-28T15:42:27.800Z,102064.97
2023-03-28T15:45:38.669Z,102052.50
2023-03-28T15:48:07.765Z,102051.72
2023-03-28T15:50:38.721Z,102041.56
2023-03-28T15:53:12.431Z,102043.78
2023-03-28T15:55:42.754Z,102046.03
2023-03-28T15:58:16.015Z,102036.66
2023-03-28T16:00:49.039Z,102048.44
2023-03-28T16:03:36.705Z,102047.22
2023-03-28T16:06:30.696Z,102041.00
2023-03-28T16:09:16.722Z,102031.75
2023-03-28T16:11:46.546Z,102039.53
2023-03-28T16:14:18.427Z,102030.75
2023-03-28T16:16:48.093Z,102019.44
2023-03-28T16:19:21.130Z,102028.25
2023-03-28T16:21:49.612Z,102031.25
2023-03-28T16:24:18.038Z,102018.38
2023-03-28T16:26:48.145Z,102023.78
2023-03-28T16:29:16.800Z,102027.16
2023-03-28T16:31:45.876Z,102019.69
2023-03-28T16:34:15.958Z,102015.84
2023-03-28T16:36:44.377Z,102010.44
2023-03-28T16:39:12.696Z,102005.66
2023-03-28T16:41:40.933Z,102014.88
2023-03-28T16:44:09.206Z,102013.97
2023-03-28T16:46:37.561Z,102012.38
2023-03-28T16:49:05.876Z,102013.00
2023-03-28T16:51:35.621Z,101995.97
2023-03-28T16:54:04.133Z,102005.69
2023-03-28T16:56:32.491Z,101996.75
2023-03-28T16:59:00.821Z,102014.47
2023-03-28T17:01:29.190Z,102002.84
2023-03-28T17:04:05.146Z,101995.84
2023-03-28T17:06:33.489Z,102000.78
2023-03-28T17:09:04.539Z,102002.25
2023-03-28T17:11:32.880Z,102003.66
2023-03-28T17:14:01.414Z,102006.22
2023-03-28T17:16:29.716Z,102009.56
2023-03-28T17:18:58.047Z,102003.69
2023-03-28T17:21:26.505Z,102001.63
2023-03-28T17:23:55.430Z,101993.03
2023-03-28T17:26:25.074Z,102003.09
2023-03-28T17:28:58.150Z,101992.91
2023-03-28T17:31:26.706Z,101996.22
2023-03-28T17:33:55.913Z,101991.97
2023-03-28T17:36:27.133Z,101989.91
2023-03-28T17:38:57.574Z,101991.00
2023-03-28T17:41:28.004Z,101984.31
2023-03-28T17:43:58.358Z,101992.75
2023-03-28T17:46:27.248Z,102002.31
2023-03-28T17:48:55.971Z,101997.53
2023-03-28T17:51:24.413Z,102009.34
2023-03-28T17:53:52.711Z,102010.59
2023-03-28T17:56:21.435Z,101996.94
2023-03-28T17:58:51.896Z,102009.69
2023-03-28T18:01:20.881Z,102009.97
2023-03-28T18:03:49.374Z,102008.06
2023-03-28T18:06:18.176Z,102003.94
2023-03-28T18:08:46.944Z,102007.91
2023-03-28T18:11:18.882Z,102013.47
2023-03-28T18:13:47.324Z,101997.72
2023-03-28T18:16:18.336Z,102005.19
2023-03-28T18:18:46.784Z,101998.03
2023-03-28T18:21:15.569Z,101995.63
2023-03-28T18:23:43.827Z,101998.50
2023-03-28T18:26:12.287Z,101996.88
2023-03-28T18:28:40.976Z,101999.25
2023-03-28T18:31:11.582Z,101994.91
2023-03-28T18:33:42.964Z,101991.56
2023-03-28T18:36:12.560Z,102008.19
2023-03-28T18:38:45.040Z,102000.06
2023-03-28T18:41:13.840Z,102011.31
2023-03-28T18:43:44.556Z,102008.25
2023-03-28T18:46:15.900Z,102010.13
2023-03-28T18:48:46.235Z,102009.75
2023-03-28T18:51:14.602Z,102010.31
2023-03-28T18:53:43.382Z,102016.59
2023-03-28T18:56:13.495Z,102001.13
2023-03-28T18:58:42.037Z,102002.88
2023-03-28T19:01:11.897Z,102005.16
2023-03-28T19:03:42.343Z,102007.22
2023-03-28T19:06:15.069Z,102008.44
2023-03-28T19:08:43.890Z,102010.13
2023-03-28T19:11:15.391Z,102019.91
2023-03-28T19:13:44.618Z,102015.72
2023-03-28T19:16:15.463Z,102014.75
2023-03-28T19:18:46.483Z,102016.75
2023-03-28T19:21:17.889Z,102018.28
2023-03-28T19:23:48.593Z,102006.59
2023-03-28T19:26:18.345Z,102002.41
2023-03-28T19:28:47.354Z,101996.03
2023-03-28T19:31:17.919Z,101992.75
2023-03-28T19:33:46.319Z,101982.09
2023-03-28T19:36:16.108Z,101979.69
2023-03-28T19:38:44.455Z,101971.72
2023-03-28T19:41:19.512Z,101961.56
2023-03-28T19:43:49.072Z,101955.47
2023-03-28T19:46:23.853Z,101961.75
2023-03-28T19:48:54.721Z,101976.09
2023-03-28T19:51:24.804Z,101968.75
2023-03-28T19:53:53.189Z,101968.81
2023-03-28T19:56:23.032Z,101969.63
2023-03-28T19:58:51.914Z,101962.34
2023-03-28T20:01:20.562Z,101955.66
2023-03-28T20:03:52.885Z,101938.03
2023-03-28T20:06:24.817Z,101949.97
2023-03-28T20:08:53.116Z,101941.00
2023-03-28T20:11:22.119Z,101944.25
2023-03-28T20:13:50.473Z,101931.41
2023-03-28T20:16:18.830Z,101929.94
2023-03-28T20:18:48.245Z,101925.13
2023-03-28T20:21:16.642Z,101920.22
2023-03-28T20:23:46.288Z,101930.19
2023-03-28T20:26:18.661Z,101928.66
2023-03-28T20:28:50.096Z,101923.13
2023-03-28T20:31:19.558Z,101924.72
2023-03-28T20:33:48.115Z,101925.81
2023-03-28T20:36:17.291Z,101929.00
2023-03-28T20:38:47.551Z,101929.59
2023-03-28T20:41:19.063Z,101924.22
2023-03-28T20:43:48.044Z,101916.16
2023-03-28T20:46:19.622Z,101909.44
2023-03-28T20:48:52.013Z,101911.03
2023-03-28T20:51:22.764Z,101901.59
2023-03-28T20:53:57.002Z,101893.44
2023-03-28T20:56:29.199Z,101878.28
2023-03-28T20:58:59.733Z,101888.78
2023-03-28T21:01:30.169Z,101868.44
2023-03-28T21:04:01.548Z,101870.03
2023-03-28T21:06:33.469Z,101854.69
2023-03-28T21:09:06.791Z,101853.09
2023-03-28T21:11:37.315Z,101845.94
2023-03-28T21:14:08.885Z,101842.94
2023-03-28T21:16:37.869Z,101846.72
2023-03-28T21:19:06.846Z,101845.94
2023-03-28T21:21:36.251Z,101847.53
2023-03-28T21:24:07.274Z,101840.56
2023-03-28T21:26:36.010Z,101832.19
2023-03-28T21:29:04.691Z,101839.16
2023-03-28T21:31:33.240Z,101829.78
2023-03-28T21:34:01.551Z,101831.69
2023-03-28T21:36:30.346Z,101833.28
2023-03-28T21:38:58.629Z,101835.75
2023-03-28T21:41:28.311Z,101832.56
2023-03-28T21:43:56.904Z,101830.16
2023-03-28T21:46:25.576Z,101829.88
2023-03-28T21:48:54.010Z,101838.44
2023-03-28T21:51:22.287Z,101834.38
2023-03-28T21:53:50.784Z,101833.56
2023-03-28T21:56:19.005Z,101824.19
2023-03-28T21:58:48.654Z,101832.25
2023-03-28T22:01:18.666Z,101830.38
2023-03-28T22:03:48.056Z,101831.75
2023-03-28T22:06:18.067Z,101826.88
2023-03-28T22:08:49.362Z,101833.88
2023-03-28T22:11:19.793Z,101814.22
2023-03-28T22:13:49.439Z,101813.44
2023-03-28T22:16:17.765Z,101806.47
2023-03-28T22:18:49.636Z,101816.66
2023-03-28T22:21:18.503Z,101789.75
2023-03-28T22:23:47.694Z,101774.41
2023-03-28T22:26:17.896Z,101773.63
2023-03-28T22:28:46.181Z,101763.97
2023-03-28T22:31:17.024Z,101773.09
2023-03-28T22:33:45.457Z,101766.13
2023-03-28T22:36:13.943Z,101760.75
2023-03-28T22:38:42.243Z,101761.06
2023-03-28T22:41:11.094Z,101745.41
2023-03-28T22:43:42.795Z,101752.09
2023-03-28T22:46:16.430Z,101752.91
2023-03-28T22:48:46.369Z,101761.75
2023-03-28T22:51:15.763Z,101762.25
2023-03-28T22:53:44.033Z,101743.94
2023-03-28T22:56:12.329Z,101748.22
2023-03-28T22:58:40.665Z,101747.09
2023-03-28T23:01:09.010Z,101739.53
2023-03-28T23:03:37.462Z,101736.75
2023-03-28T23:06:08.233Z,101723.78
2023-03-28T23:08:37.436Z,101725.34
2023-03-28T23:11:06.877Z,101722.38
2023-03-28T23:13:35.295Z,101726.97
2023-03-28T23:16:03.678Z,101717.28
2023-03-28T23:18:32.713Z,101702.28
2023-03-28T23:21:01.060Z,101695.31
2023-03-28T23:23:32.271Z,101695.31
2023-03-28T23:26:00.761Z,101691.81
2023-03-28T23:28:29.699Z,101689.44
2023-03-28T23:30:57.883Z,101687.53
2023-03-28T23:33:26.086Z,101676.47
2023-03-28T23:35:54.387Z,101663.22
2023-03-28T23:38:22.630Z,101663.22
2023-03-28T23:40:52.232Z,101671.56
2023-03-28T23:43:20.431Z,101661.94
2023-03-28T23:45:49.041Z,101670.47
2023-03-28T23:48:17.289Z,101655.41
2023-03-28T23:50:45.709Z,101665.09
2023-03-28T23:53:14.023Z,101665.09
2023-03-28T23:55:42.314Z,101668.41
2023-03-28T23:58:11.920Z,101661.94
